KSVC/SVC METAR and TAF weather

Enter ICAO airport designator
Station Type Date Time Source
KSVC METAR 2021/04/14 19:55 UTC NOAA

KSVC 141955Z AUTO 25012G18KT 10SM CLR 23/M11 A3000 RMK AO2 T02291106


Station Type Date Time Source
KSVC Decoded METAR 2021/04/14 19:55 UTC NOAA

Silver City / Grant, NM, United States (KSVC) 32-38N 108-09W
Apr 14, 2021 - 03:55 PM EDT / 2021.04.14 1955 UTC
Wind: from the WSW (250 degrees) at 14 MPH (12 KT) gusting to 21 MPH (18 KT):0
Visibility: 10 mile(s):0
Sky conditions: clear
Temperature: 73.2 F (22.9 C)
Dew Point: 12.9 F (-10.6 C)
Relative Humidity: 9%
Pressure (altimeter): 30 in. Hg (1015 hPa)
ob: KSVC 141955Z AUTO 25012G18KT 10SM CLR 23/M11 A3000 RMK AO2 T02291106
cycle: 20

Station Type Date Time Source
KSVC TAF UTC NOAA

Error!

Example: see airport list